Time;durP1;ratioP1;P1;durP2;ratioP2;P2;SDS_P1;SDS_P2;PMS_P1;PMS_P2;Temp;Humidity;BMP_temperature;BMP_pressure;BME280_temperature;BME280_humidity;BME280_pressure;Samples;Min_cycle;Max_cycle;Signal;HPM_P1;HPM_P2
2022/05/10 00:01:43;;;;;;;3.30;2.25;;;;;;;11.13;55.44;101190.88;4954830;29;20392;-78
2022/05/10 00:04:10;;;;;;;5.05;2.88;;;;;;;11.09;55.44;101187.38;4955130;28;20082;-78
2022/05/10 00:06:41;;;;;;;8.52;2.67;;;;;;;11.03;55.60;101182.69;4954813;29;20035;-78
2022/05/10 00:09:09;;;;;;;5.13;2.38;;;;;;;10.95;55.29;101181.38;4954787;29;20043;-78
2022/05/10 00:11:36;;;;;;;7.55;3.58;;;;;;;10.97;55.91;101191.03;4955906;28;20027;-77
2022/05/10 00:14:02;;;;;;;3.38;2.53;;;;;;;10.93;55.56;101178.16;4954810;28;20158;-77
2022/05/10 00:16:28;;;;;;;5.60;3.22;;;;;;;10.86;55.67;101175.56;4954634;28;20062;-77
2022/05/10 00:18:53;;;;;;;3.70;2.20;;;;;;;10.83;55.94;101188.69;4954189;28;20469;-77
2022/05/10 00:21:31;;;;;;;6.60;2.55;;;;;;;10.77;56.82;101176.25;4938408;29;20035;-77
2022/05/10 00:23:57;;;;;;;3.88;2.72;;;;;;;10.75;56.87;101179.59;4954066;29;20445;-76
2022/05/10 00:26:23;;;;;;;3.95;2.38;;;;;;;10.65;57.23;101180.75;4954429;28;20054;-76
2022/05/10 00:28:49;;;;;;;6.28;2.40;;;;;;;10.63;56.84;101173.91;4963253;28;20061;-79
2022/05/10 00:31:17;;;;;;;8.10;2.88;;;;;;;10.64;57.56;101182.00;4957436;28;20023;-78
2022/05/10 00:33:45;;;;;;;5.85;3.05;;;;;;;10.61;57.49;101174.34;4941474;28;20035;-77
2022/05/10 00:36:12;;;;;;;8.27;3.20;;;;;;;10.56;57.80;101177.00;4957534;28;20467;-76
2022/05/10 00:38:42;;;;;;;9.98;2.90;;;;;;;10.53;57.73;101177.91;4925753;28;20045;-76
2022/05/10 00:41:11;;;;;;;8.32;2.97;;;;;;;10.53;56.65;101172.19;4941385;28;20043;-76
2022/05/10 00:43:41;;;;;;;7.60;3.20;;;;;;;10.49;58.15;101165.84;4974825;28;20069;-78
2022/05/10 00:46:14;;;;;;;12.30;3.55;;;;;;;10.46;58.44;101170.38;4925875;28;20364;-75
2022/05/10 00:48:48;;;;;;;7.75;2.67;;;;;;;10.43;58.80;101165.59;4941859;28;20035;-75
2022/05/10 00:51:17;;;;;;;7.65;2.97;;;;;;;10.39;58.04;101165.72;4957192;28;20030;-75
2022/05/10 00:54:08;;;;;;;7.25;3.10;;;;;;;10.36;58.81;101163.00;4957224;28;20043;-75
2022/05/10 00:57:05;;;;;;;4.78;2.83;;;;;;;10.32;58.65;101157.41;4957121;28;20050;-77
2022/05/10 01:00:15;;;;;;;10.23;2.58;;;;;;;10.28;58.87;101153.09;4956913;28;20101;-77
2022/05/10 01:03:06;;;;;;;6.75;3.17;;;;;;;10.26;58.65;101150.69;4950641;28;20042;-77
2022/05/10 01:05:46;;;;;;;4.45;3.05;;;;;;;10.22;59.47;101150.00;4957064;28;20031;-77
2022/05/10 01:08:22;;;;;;;4.55;2.60;;;;;;;10.16;59.41;101143.28;4941058;28;20026;-77
2022/05/10 01:11:03;;;;;;;6.45;3.20;;;;;;;10.12;60.32;101148.28;4957159;28;20034;-76
2022/05/10 01:13:55;;;;;;;4.10;3.17;;;;;;;10.03;59.74;101133.94;4974363;28;20031;-77
2022/05/10 01:16:23;;;;;;;6.35;3.17;;;;;;;9.99;60.14;101138.94;4950366;28;20169;-77
2022/05/10 01:18:51;;;;;;;10.98;4.55;;;;;;;9.97;60.30;101135.75;4957232;28;20122;-77
2022/05/10 01:21:44;;;;;;;7.05;3.38;;;;;;;9.94;60.58;101133.81;4925279;28;20031;-78
2022/05/10 01:24:15;;;;;;;;;;;;;;;9.88;61.87;101144.97;4957423;28;20030;-77
2022/05/10 01:27:02;;;;;;;9.35;2.85;;;;;;;9.84;60.96;101134.94;4974513;28;19921;-78
2022/05/10 01:29:33;;;;;;;3.85;2.80;;;;;;;9.83;60.98;101130.50;4954199;29;20054;-77
2022/05/10 01:34:56;;;;;;;6.05;3.42;;;;;;;9.77;61.65;101129.47;4941451;29;20106;-77
2022/05/10 01:37:32;;;;;;;7.78;3.20;;;;;;;9.75;62.00;101127.09;4958288;28;20031;-77
2022/05/10 01:40:18;;;;;;;5.82;3.67;;;;;;;9.62;61.82;101103.50;4957918;29;20035;-77
2022/05/10 01:42:58;;;;;;;5.18;2.75;;;;;;;9.67;62.12;101114.31;4942842;29;20027;-76
2022/05/10 01:45:32;;;;;;;5.32;3.33;;;;;;;9.71;62.51;101128.44;4964852;29;20038;-76
2022/05/10 01:48:09;;;;;;;4.80;3.30;;;;;;;9.67;63.22;101122.09;4965093;28;20031;-77
2022/05/10 01:50:48;;;;;;;11.55;4.35;;;;;;;9.58;62.68;101107.69;4965387;28;20042;-77
2022/05/10 01:53:21;;;;;;;11.13;3.90;;;;;;;9.65;62.66;101114.00;4979704;28;20027;-77
2022/05/10 01:55:51;;;;;;;8.45;3.63;;;;;;;9.62;63.35;101116.94;4965886;28;20051;-78
2022/05/10 01:58:20;;;;;;;8.10;3.50;;;;;;;9.58;63.45;101110.53;4982302;28;20043;-77
2022/05/10 02:00:55;;;;;;;5.60;2.78;;;;;;;9.57;63.21;101111.81;4977817;28;20039;-76
2022/05/10 02:04:08;;;;;;;5.75;3.15;;;;;;;9.54;64.01;101110.66;4958062;28;20177;-78
2022/05/10 02:06:58;;;;;;;6.78;3.58;;;;;;;9.49;63.93;101111.22;4954701;29;20086;-78
2022/05/10 02:09:31;;;;;;;7.25;3.33;;;;;;;9.45;63.39;101110.53;4950847;28;20047;-77
2022/05/10 02:12:08;;;;;;;7.03;4.03;;;;;;;9.41;63.82;101109.84;4956496;29;20019;-77
2022/05/10 02:14:42;;;;;;;6.60;3.53;;;;;;;9.39;64.18;101109.50;4940298;29;20465;-77
2022/05/10 02:17:47;;;;;;;4.88;3.85;;;;;;;9.33;64.93;101097.88;4957685;28;20027;-78
2022/05/10 02:20:23;;;;;;;7.47;3.67;;;;;;;9.32;64.75;101104.84;4936407;28;20058;-78
2022/05/10 02:23:12;;;;;;;6.90;3.55;;;;;;;9.27;64.77;101099.69;4940500;29;20038;-78
2022/05/10 02:25:45;;;;;;;6.97;3.63;;;;;;;9.24;64.72;101099.78;4957848;29;20039;-78
2022/05/10 02:28:33;;;;;;;9.35;4.00;;;;;;;9.19;65.14;101097.50;4942781;28;20046;-77
2022/05/10 02:31:13;;;;;;;6.28;3.75;;;;;;;9.16;65.40;101095.56;4959189;28;20396;-77
2022/05/10 02:33:48;;;;;;;6.97;3.80;;;;;;;9.15;65.08;101094.75;4959500;28;20117;-78
2022/05/10 02:36:14;;;;;;;6.78;4.07;;;;;;;9.13;65.94;101090.78;4959594;28;20027;-78
2022/05/10 02:38:40;;;;;;;8.57;3.67;;;;;;;9.08;65.63;101098.59;4927581;28;20031;-78
2022/05/10 02:41:36;;;;;;;5.38;3.28;;;;;;;9.07;65.64;101099.88;4927282;28;20031;-78
2022/05/10 02:44:04;;;;;;;6.40;3.17;;;;;;;9.07;65.02;101096.22;4963560;28;20046;-78
2022/05/10 02:46:30;;;;;;;9.27;3.60;;;;;;;9.03;66.31;101082.09;4942758;28;20177;-77
2022/05/10 02:48:56;;;;;;;9.57;4.20;;;;;;;9.01;66.39;101095.97;4959068;28;20038;-78
2022/05/10 02:51:23;;;;;;;3.85;3.00;;;;;;;8.99;66.28;101091.97;4958898;28;20022;-78
2022/05/10 02:53:50;;;;;;;6.65;3.05;;;;;;;8.95;66.20;101094.13;4959231;28;20057;-79
2022/05/10 02:56:20;;;;;;;6.63;3.75;;;;;;;8.92;67.22;101095.84;4958938;28;20433;-78
2022/05/10 02:58:59;;;;;;;9.00;3.92;;;;;;;8.83;67.07;101080.69;4958681;28;20034;-78
2022/05/10 03:02:03;;;;;;;7.53;3.70;;;;;;;8.90;67.47;101088.97;4959028;28;20143;-77
2022/05/10 03:04:34;;;;;;;6.38;3.30;;;;;;;8.82;67.01;101084.75;4958896;28;20391;-78
2022/05/10 03:07:09;;;;;;;;;;;;;;;8.84;68.17;101087.94;4927199;28;20134;-78
2022/05/10 03:09:36;;;;;;;7.15;3.53;;;;;;;8.80;67.53;101090.06;4976598;28;20343;-78
2022/05/10 03:12:06;;;;;;;10.20;3.85;;;;;;;8.80;68.08;101092.91;4959049;28;20065;-79
2022/05/10 03:14:32;;;;;;;9.30;3.70;;;;;;;8.73;68.15;101079.72;4927161;28;20495;-78
2022/05/10 03:16:58;;;;;;;7.35;4.55;;;;;;;8.74;68.06;101080.50;4943102;28;20035;-79
2022/05/10 03:19:25;;;;;;;7.22;4.55;;;;;;;8.76;68.08;101098.72;4975536;28;20023;-77
2022/05/10 03:21:50;;;;;;;7.47;4.38;;;;;;;8.73;68.45;101081.78;4958394;28;20026;-79
2022/05/10 03:24:16;;;;;;;9.32;4.10;;;;;;;8.79;67.86;101091.31;4976174;28;20022;-78
2022/05/10 03:26:47;;;;;;;6.32;3.70;;;;;;;8.73;67.91;101074.06;4958250;28;20058;-77
2022/05/10 03:29:15;;;;;;;6.93;3.78;;;;;;;8.86;68.18;101088.28;4955050;28;20106;-79
2022/05/10 03:31:43;;;;;;;8.68;4.22;;;;;;;8.85;68.11;101089.53;4955052;29;20070;-77
2022/05/10 03:37:03;;;;;;;10.05;4.32;;;;;;;8.88;67.90;101100.78;4955267;29;20038;-78
2022/05/10 03:39:28;;;;;;;7.13;4.05;;;;;;;8.90;67.77;101084.09;4954961;29;20110;-77
2022/05/10 03:41:54;;;;;;;6.95;3.85;;;;;;;8.93;68.88;101088.88;4939111;29;20126;-77
2022/05/10 03:44:21;;;;;;;7.40;4.63;;;;;;;8.96;68.62;101092.88;4938811;29;20058;-78
2022/05/10 03:46:47;;;;;;;5.53;3.75;;;;;;;8.99;67.69;101089.94;4939019;29;20049;-79
2022/05/10 03:49:13;;;;;;;8.13;3.95;;;;;;;9.00;67.60;101088.69;4954821;29;20106;-77
2022/05/10 03:51:40;;;;;;;7.25;4.13;;;;;;;9.05;67.67;101096.66;4954921;29;20464;-78
2022/05/10 03:54:06;;;;;;;8.80;3.78;;;;;;;9.02;67.22;101091.09;4954552;29;20027;-79
2022/05/10 03:56:34;;;;;;;11.40;4.30;;;;;;;9.09;67.41;101097.34;4955880;28;20027;-78
2022/05/10 03:59:00;;;;;;;9.93;4.43;;;;;;;9.13;66.76;101096.47;4938021;29;20090;-78
2022/05/10 04:01:34;;;;;;;8.02;3.90;;;;;;;9.17;67.21;101094.31;4954638;29;20034;-78
2022/05/10 04:04:02;;;;;;;7.60;3.75;;;;;;;9.20;66.93;101094.22;4954648;29;20035;-79
2022/05/10 04:06:28;;;;;;;10.00;3.90;;;;;;;9.22;66.49;101088.88;4941607;29;20550;-79
2022/05/10 04:08:55;;;;;;;7.93;3.80;;;;;;;9.29;67.65;101091.50;4957982;28;20031;-78
2022/05/10 04:11:21;;;;;;;9.38;3.97;;;;;;;9.30;66.83;101086.63;4941739;29;20035;-77
2022/05/10 04:13:47;;;;;;;7.75;4.32;;;;;;;9.34;67.19;101085.25;4941019;29;20122;-76
2022/05/10 04:16:13;;;;;;;8.65;4.00;;;;;;;9.04;68.20;101068.69;4939305;29;20537;-79
2022/05/10 04:18:39;;;;;;;9.13;4.47;;;;;;;8.99;69.37;101083.44;4938879;29;20027;-77
2022/05/10 04:21:06;;;;;;;8.38;4.03;;;;;;;8.98;69.79;101082.66;4954658;29;20085;-78
2022/05/10 04:23:32;;;;;;;8.73;4.00;;;;;;;8.94;69.62;101087.63;4954423;29;20129;-77
2022/05/10 04:26:12;;;;;;;10.73;4.50;;;;;;;8.99;70.11;101067.19;4922402;29;20485;-77
2022/05/10 04:28:40;;;;;;;11.77;4.53;;;;;;;9.21;69.03;101077.97;4960973;28;20046;-77
2022/05/10 04:31:08;;;;;;;5.32;3.97;;;;;;;9.37;68.14;101072.97;4957054;28;20026;-78
2022/05/10 04:33:34;;;;;;;9.05;4.53;;;;;;;9.41;68.96;101070.84;4957520;28;20038;-76
2022/05/10 04:36:00;;;;;;;9.05;4.95;;;;;;;9.60;67.81;101076.78;4973960;28;20034;-78
2022/05/10 04:38:26;;;;;;;8.73;4.22;;;;;;;9.71;67.31;101082.94;4957533;28;20047;-78
2022/05/10 04:43:44;;;;;;;6.18;3.80;;;;;;;9.77;66.36;101072.56;4975556;28;20492;-80
2022/05/10 04:46:11;;;;;;;6.65;3.95;;;;;;;9.86;65.64;101075.53;4975004;28;20066;-81
2022/05/10 04:48:37;;;;;;;7.55;4.57;;;;;;;10.04;65.82;101083.50;4957888;28;20039;-82
2022/05/10 04:51:05;;;;;;;8.50;4.20;;;;;;;10.20;65.04;101074.88;4974711;28;20034;-81
2022/05/10 04:53:31;;;;;;;6.68;4.07;;;;;;;10.36;64.58;101078.34;4957805;28;20046;-79
2022/05/10 04:55:57;;;;;;;6.03;4.00;;;;;;;10.41;65.55;101076.97;4974985;28;20388;-80
2022/05/10 04:58:24;;;;;;;9.85;4.40;;;;;;;10.49;64.47;101081.19;4958149;28;20026;-77
2022/05/10 05:01:01;;;;;;;8.93;5.00;;;;;;;10.68;64.46;101085.00;4957699;28;20097;-80
2022/05/10 05:03:27;;;;;;;7.47;4.72;;;;;;;10.79;64.30;101080.53;4974851;28;20092;-76
2022/05/10 05:05:52;;;;;;;7.30;3.90;;;;;;;10.88;63.39;101071.25;4957390;28;20527;-76
2022/05/10 05:08:18;;;;;;;8.23;4.22;;;;;;;11.09;63.17;101078.22;4941188;28;20039;-77
2022/05/10 05:10:45;;;;;;;5.65;3.75;;;;;;;11.19;62.35;101080.69;4961031;28;20023;-74
2022/05/10 05:13:10;;;;;;;11.43;4.53;;;;;;;11.32;61.67;101074.09;4977213;28;20043;-74
2022/05/10 05:15:36;;;;;;;5.97;3.88;;;;;;;11.38;61.47;101075.88;4978208;28;20034;-77
2022/05/10 05:18:04;;;;;;;7.10;4.15;;;;;;;11.47;61.26;101075.94;4960737;28;20431;-75
2022/05/10 05:20:38;;;;;;;5.25;4.03;;;;;;;11.59;60.91;101079.97;4979434;28;20027;-82
2022/05/10 05:23:08;;;;;;;10.82;4.35;;;;;;;11.66;60.83;101079.69;4979426;28;20062;-84
2022/05/10 05:25:36;;;;;;;10.82;4.18;;;;;;;11.81;59.70;101080.75;4977933;28;20169;-83
2022/05/10 05:28:04;;;;;;;8.73;4.35;;;;;;;11.94;59.64;101075.72;4960909;28;20101;-87
2022/05/10 05:30:29;;;;;;;6.93;4.13;;;;;;;11.99;58.47;101080.00;4979863;28;20034;-83
2022/05/10 05:32:56;;;;;;;9.20;4.43;;;;;;;12.06;58.59;101074.81;4994307;28;20034;-84
2022/05/10 05:35:21;;;;;;;5.53;3.60;;;;;;;12.21;57.50;101083.59;4992119;28;20126;-80
2022/05/10 05:37:47;;;;;;;11.45;4.38;;;;;;;12.14;57.76;101081.03;4991847;28;20125;-79
2022/05/10 05:40:17;;;;;;;10.52;4.53;;;;;;;12.26;57.99;101085.84;4959926;28;20046;-79
2022/05/10 05:42:42;;;;;;;6.90;4.13;;;;;;;12.42;57.69;101082.69;4977270;28;20038;-79
2022/05/10 05:45:12;;;;;;;10.70;4.28;;;;;;;12.53;58.00;101076.53;4958191;28;20027;-80
2022/05/10 05:47:38;;;;;;;10.52;4.75;;;;;;;12.68;57.38;101066.06;4980244;28;20030;-80
2022/05/10 05:50:08;;;;;;;7.03;3.70;;;;;;;12.86;56.34;101076.72;4982221;28;20357;-80
2022/05/10 05:52:33;;;;;;;10.60;4.88;;;;;;;12.71;57.28;101070.03;4991514;28;20027;-79
2022/05/10 05:54:59;;;;;;;11.48;5.10;;;;;;;12.90;56.81;101075.28;5013724;28;20324;-79
2022/05/10 05:57:24;;;;;;;7.68;4.28;;;;;;;12.95;55.74;101071.78;4998130;28;20049;-78
2022/05/10 05:59:54;;;;;;;7.07;4.43;;;;;;;13.18;56.03;101072.44;4980466;28;20090;-80
2022/05/10 06:02:21;;;;;;;12.82;5.32;;;;;;;13.29;55.61;101055.56;4977410;28;20027;-79
2022/05/10 06:04:47;;;;;;;11.30;4.95;;;;;;;13.41;56.18;101063.19;4959805;28;20081;-81
2022/05/10 06:07:15;;;;;;;13.25;4.68;;;;;;;13.60;55.01;101067.59;4958948;28;20074;-80
2022/05/10 06:09:41;;;;;;;14.75;5.53;;;;;;;13.76;54.57;101058.59;4959641;28;20030;-81
2022/05/10 06:12:08;;;;;;;15.75;5.82;;;;;;;13.88;54.32;101058.88;4977413;28;20027;-81
2022/05/10 06:14:34;;;;;;;12.80;5.68;;;;;;;14.15;53.98;101053.06;4977101;28;20438;-81
2022/05/10 06:17:00;;;;;;;8.90;5.28;;;;;;;14.37;53.50;101053.56;4975986;28;20031;-81
2022/05/10 06:19:27;;;;;;;7.60;4.75;;;;;;;14.53;53.53;101040.88;4975974;28;20122;-79
2022/05/10 06:21:52;;;;;;;9.85;4.65;;;;;;;14.67;52.43;101038.06;4959117;28;20531;-81
2022/05/10 06:24:18;;;;;;;10.23;4.10;;;;;;;14.88;52.41;101041.88;4976980;28;20023;-80
2022/05/10 06:26:43;;;;;;;11.57;5.20;;;;;;;14.95;51.21;101027.16;4976825;28;20045;-80
2022/05/10 06:29:08;;;;;;;7.97;5.22;;;;;;;15.28;51.19;101037.69;4959343;28;20118;-81
2022/05/10 06:31:36;;;;;;;9.90;4.93;;;;;;;15.83;50.56;101030.06;4959213;28;20034;-81
2022/05/10 06:34:02;;;;;;;16.10;5.25;;;;;;;17.56;46.41;101032.25;4959776;28;20415;-81
2022/05/10 06:36:27;;;;;;;10.43;5.40;;;;;;;19.30;41.17;101024.03;4977640;28;20101;-81
2022/05/10 06:38:53;;;;;;;7.70;4.97;;;;;;;20.93;36.58;101021.19;4976836;28;20080;-82
2022/05/10 06:41:18;;;;;;;9.05;4.63;;;;;;;22.54;34.56;101015.44;4976966;28;20023;-81
2022/05/10 06:43:43;;;;;;;10.55;4.55;;;;;;;23.94;31.92;101009.94;4976900;28;20046;-81
2022/05/10 06:46:09;;;;;;;9.05;4.63;;;;;;;25.36;28.85;101011.03;4943462;28;20038;-83
2022/05/10 06:48:35;;;;;;;7.82;4.80;;;;;;;26.23;27.95;101019.53;4977125;28;20468;-83
2022/05/10 06:51:08;;;;;;;8.88;4.65;;;;;;;27.05;27.17;101018.47;4977369;28;20388;-82
2022/05/10 06:53:35;;;;;;;10.60;4.97;;;;;;;27.85;25.92;101016.19;4959633;28;20030;-82
2022/05/10 06:56:00;;;;;;;10.82;4.85;;;;;;;28.27;24.38;101016.63;4959445;28;20082;-82
2022/05/10 06:58:26;;;;;;;7.78;4.40;;;;;;;29.05;23.60;101010.78;4976750;28;20034;-83
2022/05/10 07:00:51;;;;;;;7.15;4.40;;;;;;;29.57;22.84;101003.88;4942951;28;20030;-84
2022/05/10 07:03:23;;;;;;;7.45;4.70;;;;;;;30.28;22.47;101000.59;4976865;28;20089;-84
2022/05/10 07:05:49;;;;;;;8.82;5.45;;;;;;;29.78;21.44;100997.66;4959577;28;20019;-83
2022/05/10 07:08:14;;;;;;;10.52;5.00;;;;;;;29.97;22.59;101008.91;4976994;28;20035;-83
2022/05/10 07:10:40;;;;;;;7.65;5.03;;;;;;;29.47;23.61;101000.00;4958960;28;20022;-83
2022/05/10 07:13:05;;;;;;;6.55;4.30;;;;;;;30.22;23.90;101000.84;4976713;28;20038;-84
2022/05/10 07:15:31;;;;;;;8.05;4.35;;;;;;;31.12;21.75;100992.44;4958969;28;20081;-84
2022/05/10 07:17:56;;;;;;;10.55;4.80;;;;;;;30.77;21.19;101000.50;4976136;28;20022;-84
2022/05/10 07:20:22;;;;;;;7.35;4.13;;;;;;;31.42;20.47;100990.47;4942559;28;20033;-85
2022/05/10 07:22:48;;;;;;;5.07;4.07;;;;;;;31.59;21.24;100994.16;4976543;28;20161;-85
2022/05/10 07:25:16;;;;;;;8.32;4.63;;;;;;;31.55;21.33;100987.13;4976545;28;20035;-83
2022/05/10 07:27:41;;;;;;;10.52;4.25;;;;;;;31.76;20.41;100993.31;4991152;28;20117;-85
2022/05/10 07:30:08;;;;;;;11.25;4.72;;;;;;;31.59;20.62;100976.47;4975784;28;20082;-84
2022/05/10 07:32:34;;;;;;;6.53;4.47;;;;;;;32.36;21.02;100973.03;4958516;28;20142;-85
2022/05/10 07:35:02;;;;;;;7.88;4.97;;;;;;;32.48;19.42;100968.84;4958065;28;20054;-84
2022/05/10 07:37:29;;;;;;;13.13;4.68;;;;;;;32.37;19.18;100987.16;4958572;28;20042;-83
2022/05/10 07:39:54;;;;;;;5.93;4.20;;;;;;;32.79;19.53;100988.94;4958238;28;20031;-83
2022/05/10 07:42:20;;;;;;;6.80;4.40;;;;;;;33.34;18.77;100979.91;4976216;28;20380;-82
2022/05/10 07:44:51;;;;;;;9.00;4.70;;;;;;;34.00;19.03;100971.44;4976072;28;20026;-87
2022/05/10 07:47:18;;;;;;;7.18;4.57;;;;;;;34.46;18.25;100970.25;4975157;28;20035;-76
2022/05/10 07:49:43;;;;;;;8.93;4.57;;;;;;;34.02;18.49;100977.50;4957444;28;20029;-77
2022/05/10 07:52:10;;;;;;;12.05;4.32;;;;;;;34.40;16.94;100957.97;4975223;28;20102;-76
2022/05/10 07:54:36;;;;;;;6.90;5.00;;;;;;;34.12;17.67;100968.56;4975084;28;20043;-77
2022/05/10 07:57:03;;;;;;;5.53;4.05;;;;;;;34.29;18.63;100956.47;4975093;28;20035;-78
2022/05/10 07:59:30;;;;;;;9.10;4.20;;;;;;;34.80;16.76;100960.03;4957643;28;20065;-78
2022/05/10 08:01:56;;;;;;;7.80;3.97;;;;;;;35.14;17.29;100965.31;4957801;28;20026;-78
2022/05/10 08:04:23;;;;;;;9.98;4.30;;;;;;;34.91;17.45;100957.13;4973428;28;20054;-78
2022/05/10 08:06:49;;;;;;;6.55;4.63;;;;;;;34.76;17.14;100954.59;4973442;28;20085;-77
2022/05/10 08:09:15;;;;;;;7.90;4.68;;;;;;;34.69;18.33;100958.56;4973490;28;20038;-77
2022/05/10 08:11:43;;;;;;;7.45;4.05;;;;;;;34.87;17.20;100959.81;4973707;28;20089;-77
2022/05/10 08:14:10;;;;;;;6.38;3.92;;;;;;;34.37;18.09;100956.28;4973724;28;20031;-77
2022/05/10 08:16:36;;;;;;;10.85;4.53;;;;;;;34.38;18.68;100946.78;4979474;28;20046;-78
2022/05/10 08:19:02;;;;;;;6.40;4.22;;;;;;;34.08;18.50;100956.44;4975862;28;20066;-81
2022/05/10 08:21:30;;;;;;;6.80;3.88;;;;;;;34.11;18.11;100943.34;4958578;28;20058;-79
2022/05/10 08:23:56;;;;;;;11.55;4.47;;;;;;;34.30;18.39;100948.38;4975822;28;20023;-78
2022/05/10 08:26:23;;;;;;;11.40;4.00;;;;;;;34.83;17.82;100962.50;4973586;28;20031;-80
2022/05/10 08:28:49;;;;;;;5.60;4.00;;;;;;;34.76;18.08;100950.88;4968819;28;20159;-80
2022/05/10 08:31:16;;;;;;;8.05;3.72;;;;;;;34.29;18.62;100952.78;4976648;28;20034;-79
2022/05/10 08:33:44;;;;;;;6.80;3.53;;;;;;;34.36;16.90;100954.75;4959199;28;20042;-80
2022/05/10 08:36:13;;;;;;;7.82;3.90;;;;;;;34.31;17.48;100955.88;4941758;28;20031;-79
2022/05/10 08:38:41;;;;;;;15.30;4.50;;;;;;;33.76;18.27;100949.75;4957550;28;20030;-77
2022/05/10 08:41:18;;;;;;;6.03;3.92;;;;;;;34.11;17.87;100928.56;4957273;28;20022;-77
2022/05/10 08:43:54;;;;;;;6.65;3.83;;;;;;;33.95;17.29;100942.97;4957789;28;20109;-77
2022/05/10 08:46:51;;;;;;;5.65;4.00;;;;;;;34.06;17.93;100948.19;4960891;28;20495;-78
2022/05/10 08:49:34;;;;;;;4.40;3.10;;;;;;;34.00;18.22;100949.94;4958695;28;20463;-80
2022/05/10 08:52:01;;;;;;;5.75;3.13;;;;;;;34.11;19.48;100937.44;4978655;28;20027;-78
2022/05/10 08:54:37;;;;;;;6.30;3.33;;;;;;;33.91;18.92;100927.13;4945200;28;20120;-78
2022/05/10 08:57:09;;;;;;;5.88;3.10;;;;;;;33.70;17.38;100931.56;4960791;28;20031;-74
2022/05/10 09:00:04;;;;;;;9.25;4.32;;;;;;;33.42;17.77;100926.53;4960744;28;20034;-76
2022/05/10 09:02:46;;;;;;;34.65;6.35;;;;;;;33.07;18.02;100925.34;4978607;28;20031;-77
2022/05/10 09:05:20;;;;;;;6.65;3.53;;;;;;;32.85;18.15;100930.38;4978261;28;20039;-77
2022/05/10 09:07:56;;;;;;;5.47;3.38;;;;;;;32.36;17.40;100925.84;4960570;28;20035;-76
2022/05/10 09:10:37;;;;;;;9.63;3.25;;;;;;;32.34;17.53;100926.47;4977746;28;20454;-77
2022/05/10 09:13:10;;;;;;;11.55;3.53;;;;;;;31.78;18.13;100921.94;4978001;28;20027;-78
2022/05/10 09:15:40;;;;;;;10.98;4.65;;;;;;;31.59;17.87;100925.59;4960637;28;20147;-77
2022/05/10 09:18:18;;;;;;;3.45;2.00;;;;;;;31.51;18.42;100913.91;4960830;28;20038;-76
2022/05/10 09:21:15;;;;;;;5.43;3.10;;;;;;;31.39;19.90;100915.88;4960475;28;20066;-76
2022/05/10 09:24:01;;;;;;;19.23;4.05;;;;;;;31.33;19.99;100909.47;4977679;28;20037;-77
2022/05/10 09:26:38;;;;;;;8.07;2.90;;;;;;;30.60;18.73;100903.41;4977985;28;20035;-76
2022/05/10 09:29:17;;;;;;;10.43;3.58;;;;;;;30.16;19.72;100906.22;4941497;29;20099;-77
2022/05/10 09:34:47;;;;;;;7.57;3.78;;;;;;;29.92;20.72;100901.19;4957490;29;20086;-77
2022/05/10 09:37:33;;;;;;;36.92;8.35;;;;;;;30.01;21.47;100892.47;4957015;29;20126;-75
2022/05/10 09:39:58;;;;;;;13.75;3.83;;;;;;;30.00;20.84;100899.72;4957976;28;20038;-76
2022/05/10 09:42:52;;;;;;;7.47;3.17;;;;;;;29.95;21.57;100889.00;4958073;28;20420;-77
2022/05/10 09:45:25;;;;;;;5.75;2.83;;;;;;;29.75;22.23;100883.50;4954974;29;20305;-77
2022/05/10 09:48:07;;;;;;;5.57;2.88;;;;;;;29.12;21.82;100887.47;4958024;28;20035;-77
2022/05/10 09:50:35;;;;;;;3.35;2.95;;;;;;;29.07;21.76;100873.81;4956827;28;20031;-76
2022/05/10 09:53:29;;;;;;;16.80;5.03;;;;;;;29.16;23.34;100873.16;4956860;28;20047;-80
2022/05/10 09:56:23;;;;;;;9.05;3.45;;;;;;;28.48;21.44;100866.84;4955840;28;20027;-78
2022/05/10 09:58:57;;;;;;;5.38;2.47;;;;;;;28.41;22.56;100873.53;4957294;28;20031;-78
2022/05/10 10:01:39;;;;;;;5.53;2.63;;;;;;;28.07;22.59;100871.09;4943494;29;20064;-77
2022/05/10 10:04:37;;;;;;;2.55;2.20;;;;;;;27.77;24.79;100866.06;4975643;28;20035;-78
2022/05/10 10:07:22;;;;;;;4.65;2.75;;;;;;;27.60;23.45;100865.84;4978083;28;20531;-80
2022/05/10 10:09:51;;;;;;;14.52;3.05;;;;;;;27.75;25.48;100857.84;4974603;29;20031;-77
2022/05/10 10:12:37;;;;;;;2.55;2.15;;;;;;;27.73;24.63;100856.84;4974361;28;20055;-77
2022/05/10 10:15:17;;;;;;;2.95;2.08;;;;;;;27.61;26.59;100853.56;4961279;29;20099;-79
2022/05/10 10:17:50;;;;;;;4.75;2.55;;;;;;;27.34;24.45;100852.34;4970900;29;20070;-77
2022/05/10 10:20:31;;;;;;;4.30;2.65;;;;;;;27.23;26.03;100844.78;4959049;29;20075;-77
2022/05/10 10:23:01;;;;;;;5.13;2.65;;;;;;;27.09;26.57;100851.38;4958506;29;20039;-78
2022/05/10 10:25:39;;;;;;;3.80;2.30;;;;;;;26.82;25.55;100848.75;4957103;29;20046;-77
2022/05/10 10:28:20;;;;;;;6.55;2.40;;;;;;;26.73;26.78;100840.56;4959028;28;20039;-77
2022/05/10 10:31:09;;;;;;;6.47;2.70;;;;;;;26.75;27.93;100831.19;4959223;28;20031;-78
2022/05/10 10:33:52;;;;;;;2.42;1.95;;;;;;;26.55;26.47;100821.97;4959566;28;20449;-77
2022/05/10 10:36:21;;;;;;;4.25;3.08;;;;;;;26.15;27.59;100826.63;4959369;28;20031;-78
2022/05/10 10:39:03;;;;;;;11.48;3.47;;;;;;;26.07;27.21;100829.53;4977403;28;20070;-78
2022/05/10 10:41:46;;;;;;;4.50;2.92;;;;;;;26.12;27.43;100816.91;4959337;28;20451;-79
2022/05/10 10:44:29;;;;;;;12.65;3.53;;;;;;;25.89;27.31;100823.97;4959460;28;20030;-78
2022/05/10 10:47:31;;;;;;;6.43;2.90;;;;;;;25.62;29.24;100818.34;4959628;28;20081;-78
2022/05/10 10:49:57;;;;;;;;;;;;;;;25.39;29.86;100811.53;4956288;28;20042;-78
2022/05/10 10:52:24;;;;;;;7.55;2.92;;;;;;;25.12;29.75;100805.06;4977022;28;19910;-80
2022/05/10 10:54:50;;;;;;;4.28;2.78;;;;;;;25.10;29.35;100804.88;4944004;28;20031;-78
2022/05/10 10:57:37;;;;;;;3.95;2.65;;;;;;;24.87;29.73;100807.56;4943299;28;20520;-78
2022/05/10 11:00:08;;;;;;;4.80;3.05;;;;;;;24.58;30.17;100808.78;4975796;28;20121;-78
2022/05/10 11:03:01;;;;;;;5.70;2.80;;;;;;;24.65;30.98;100796.44;4976307;28;20113;-77
2022/05/10 11:05:49;;;;;;;7.65;2.92;;;;;;;24.41;29.68;100802.56;4959179;28;20034;-79
2022/05/10 11:08:34;;;;;;;9.00;3.00;;;;;;;24.27;30.13;100792.31;4959068;28;20030;-77
2022/05/10 11:11:22;;;;;;;6.43;3.10;;;;;;;24.15;29.96;100783.00;4976131;28;20035;-80
2022/05/10 11:14:29;;;;;;;8.77;3.08;;;;;;;24.07;30.40;100779.22;4976489;28;20045;-80
2022/05/10 11:17:14;;;;;;;7.18;3.13;;;;;;;23.91;30.51;100780.38;4976030;28;20114;-77
2022/05/10 11:20:01;;;;;;;9.32;3.83;;;;;;;23.87;31.31;100777.00;4959324;28;20090;-78
2022/05/10 11:22:51;;;;;;;3.28;2.50;;;;;;;23.64;29.80;100765.03;4976368;28;20042;-78
2022/05/10 11:25:25;;;;;;;6.00;2.85;;;;;;;23.69;30.44;100775.78;4960544;28;20361;-78
2022/05/10 11:28:12;;;;;;;8.38;2.50;;;;;;;23.67;30.43;100761.03;4975836;28;20054;-77
2022/05/10 11:30:50;;;;;;;7.53;2.97;;;;;;;23.55;30.33;100760.47;4955164;28;20125;-77
2022/05/10 11:33:40;;;;;;;63.58;9.85;;;;;;;23.66;31.11;100748.59;4955212;29;20105;-77
2022/05/10 11:36:21;;;;;;;4.32;2.40;;;;;;;23.75;31.05;100746.56;4956574;28;20091;-76
2022/05/10 11:39:10;;;;;;;5.10;2.30;;;;;;;23.65;29.72;100744.13;4956493;28;20035;-77
2022/05/10 11:41:46;;;;;;;4.25;2.65;;;;;;;23.57;31.34;100746.16;4955967;29;20031;-78
2022/05/10 11:44:36;;;;;;;6.60;2.72;;;;;;;23.76;31.51;100734.38;4938898;29;20034;-77
2022/05/10 11:47:25;;;;;;;3.83;3.20;;;;;;;23.81;30.25;100736.41;4954965;29;20106;-77
2022/05/10 11:50:20;;;;;;;6.60;2.30;;;;;;;23.68;30.56;100724.78;4970776;28;20027;-78
2022/05/10 11:53:15;;;;;;;4.80;2.47;;;;;;;23.82;33.33;100719.72;4956256;28;20023;-81
2022/05/10 11:55:55;;;;;;;5.60;2.10;;;;;;;23.84;31.41;100711.97;4957276;29;20034;-83
2022/05/10 11:58:23;;;;;;;4.75;2.10;;;;;;;23.82;30.48;100716.81;4954865;28;20027;-78
2022/05/10 12:00:51;;;;;;;5.97;3.00;;;;;;;23.84;30.48;100717.78;4956442;28;20377;-81
2022/05/10 12:03:39;;;;;;;4.13;2.50;;;;;;;23.73;32.24;100706.41;4955416;29;20038;-82
2022/05/10 12:06:22;;;;;;;20.73;3.78;;;;;;;23.77;30.74;100715.59;4957140;28;20030;-84